sensor_id;sensor_type;location;lat;lon;timestamp;P1;durP1;ratioP1;P2;durP2;ratioP2
75684;SDS011;64298;46.050;38.164;2023-03-25T00:00:19;20.08;;;9.88;;
75684;SDS011;64298;46.050;38.164;2023-03-25T00:02:50;21.10;;;9.73;;
75684;SDS011;64298;46.050;38.164;2023-03-25T00:05:18;17.33;;;9.35;;
75684;SDS011;64298;46.050;38.164;2023-03-25T00:07:47;18.80;;;8.90;;
75684;SDS011;64298;46.050;38.164;2023-03-25T00:10:15;16.80;;;9.48;;
75684;SDS011;64298;46.050;38.164;2023-03-25T00:12:41;22.42;;;10.60;;
75684;SDS011;64298;46.050;38.164;2023-03-25T00:15:07;19.92;;;9.90;;
75684;SDS011;64298;46.050;38.164;2023-03-25T00:20:03;19.98;;;9.02;;
75684;SDS011;64298;46.050;38.164;2023-03-25T00:22:33;19.38;;;8.90;;
75684;SDS011;64298;46.050;38.164;2023-03-25T00:25:06;17.25;;;8.90;;
75684;SDS011;64298;46.050;38.164;2023-03-25T00:27:33;16.27;;;8.65;;
75684;SDS011;64298;46.050;38.164;2023-03-25T00:29:59;21.73;;;9.85;;
75684;SDS011;64298;46.050;38.164;2023-03-25T00:32:25;20.08;;;10.73;;
75684;SDS011;64298;46.050;38.164;2023-03-25T00:34:54;18.25;;;9.93;;
75684;SDS011;64298;46.050;38.164;2023-03-25T00:37:20;22.25;;;10.40;;
75684;SDS011;64298;46.050;38.164;2023-03-25T00:39:47;21.05;;;9.73;;
75684;SDS011;64298;46.050;38.164;2023-03-25T00:42:16;22.55;;;9.52;;
75684;SDS011;64298;46.050;38.164;2023-03-25T00:44:51;19.90;;;9.77;;
75684;SDS011;64298;46.050;38.164;2023-03-25T00:47:17;18.67;;;10.18;;
75684;SDS011;64298;46.050;38.164;2023-03-25T00:49:45;19.38;;;9.60;;
75684;SDS011;64298;46.050;38.164;2023-03-25T00:52:11;21.05;;;10.20;;
75684;SDS011;64298;46.050;38.164;2023-03-25T00:54:38;19.55;;;9.77;;
75684;SDS011;64298;46.050;38.164;2023-03-25T00:57:04;17.23;;;9.35;;
75684;SDS011;64298;46.050;38.164;2023-03-25T00:59:30;22.05;;;10.75;;
75684;SDS011;64298;46.050;38.164;2023-03-25T01:01:58;20.08;;;9.82;;
75684;SDS011;64298;46.050;38.164;2023-03-25T01:04:43;19.73;;;9.93;;
75684;SDS011;64298;46.050;38.164;2023-03-25T01:07:10;22.98;;;11.20;;
75684;SDS011;64298;46.050;38.164;2023-03-25T01:09:37;21.98;;;9.95;;
75684;SDS011;64298;46.050;38.164;2023-03-25T01:12:06;24.45;;;11.13;;
75684;SDS011;64298;46.050;38.164;2023-03-25T01:14:32;22.73;;;10.45;;
75684;SDS011;64298;46.050;38.164;2023-03-25T01:16:58;26.30;;;12.05;;
75684;SDS011;64298;46.050;38.164;2023-03-25T01:19:26;21.80;;;11.75;;
75684;SDS011;64298;46.050;38.164;2023-03-25T01:21:52;25.63;;;11.20;;
75684;SDS011;64298;46.050;38.164;2023-03-25T01:24:17;27.13;;;11.80;;
75684;SDS011;64298;46.050;38.164;2023-03-25T01:26:44;24.27;;;10.27;;
75684;SDS011;64298;46.050;38.164;2023-03-25T01:29:11;20.85;;;10.90;;
75684;SDS011;64298;46.050;38.164;2023-03-25T01:31:38;21.13;;;10.48;;
75684;SDS011;64298;46.050;38.164;2023-03-25T01:34:05;28.85;;;12.02;;
75684;SDS011;64298;46.050;38.164;2023-03-25T01:36:32;22.88;;;10.95;;
75684;SDS011;64298;46.050;38.164;2023-03-25T01:39:00;19.65;;;10.43;;
75684;SDS011;64298;46.050;38.164;2023-03-25T01:41:29;20.23;;;10.50;;
75684;SDS011;64298;46.050;38.164;2023-03-25T01:47:12;25.35;;;10.93;;
75684;SDS011;64298;46.050;38.164;2023-03-25T01:49:40;20.13;;;10.18;;
75684;SDS011;64298;46.050;38.164;2023-03-25T01:52:29;22.25;;;10.50;;
75684;SDS011;64298;46.050;38.164;2023-03-25T01:54:55;22.15;;;11.15;;
75684;SDS011;64298;46.050;38.164;2023-03-25T01:57:23;24.05;;;10.73;;
75684;SDS011;64298;46.050;38.164;2023-03-25T01:59:50;24.88;;;10.32;;
75684;SDS011;64298;46.050;38.164;2023-03-25T02:02:18;26.65;;;12.45;;
75684;SDS011;64298;46.050;38.164;2023-03-25T02:04:52;24.05;;;10.45;;
75684;SDS011;64298;46.050;38.164;2023-03-25T02:07:28;27.35;;;13.07;;
75684;SDS011;64298;46.050;38.164;2023-03-25T02:10:06;25.20;;;10.52;;
75684;SDS011;64298;46.050;38.164;2023-03-25T02:12:52;27.70;;;11.95;;
75684;SDS011;64298;46.050;38.164;2023-03-25T02:15:18;32.78;;;12.43;;
75684;SDS011;64298;46.050;38.164;2023-03-25T02:23:08;27.30;;;12.60;;
75684;SDS011;64298;46.050;38.164;2023-03-25T02:40:25;33.65;;;12.48;;
75684;SDS011;64298;46.050;38.164;2023-03-25T02:46:06;30.35;;;14.02;;
75684;SDS011;64298;46.050;38.164;2023-03-25T02:48:41;33.60;;;14.98;;
75684;SDS011;64298;46.050;38.164;2023-03-25T02:51:17;33.83;;;14.13;;
75684;SDS011;64298;46.050;38.164;2023-03-25T02:53:49;37.17;;;15.77;;
75684;SDS011;64298;46.050;38.164;2023-03-25T02:56:16;34.75;;;15.50;;
75684;SDS011;64298;46.050;38.164;2023-03-25T02:58:50;30.52;;;14.15;;
75684;SDS011;64298;46.050;38.164;2023-03-25T03:01:22;35.95;;;15.68;;
75684;SDS011;64298;46.050;38.164;2023-03-25T03:03:52;39.08;;;15.48;;
75684;SDS011;64298;46.050;38.164;2023-03-25T03:06:19;32.97;;;15.38;;
75684;SDS011;64298;46.050;38.164;2023-03-25T03:19:48;36.42;;;14.82;;
75684;SDS011;64298;46.050;38.164;2023-03-25T03:22:22;30.10;;;14.05;;
75684;SDS011;64298;46.050;38.164;2023-03-25T03:27:37;32.40;;;13.93;;
75684;SDS011;64298;46.050;38.164;2023-03-25T03:38:52;36.35;;;13.75;;
75684;SDS011;64298;46.050;38.164;2023-03-25T03:41:30;35.05;;;14.50;;
75684;SDS011;64298;46.050;38.164;2023-03-25T03:44:00;32.22;;;14.52;;
75684;SDS011;64298;46.050;38.164;2023-03-25T03:46:36;31.80;;;14.80;;
75684;SDS011;64298;46.050;38.164;2023-03-25T03:49:14;36.58;;;15.35;;
75684;SDS011;64298;46.050;38.164;2023-03-25T03:51:49;33.88;;;16.35;;
75684;SDS011;64298;46.050;38.164;2023-03-25T03:54:23;29.33;;;14.88;;
75684;SDS011;64298;46.050;38.164;2023-03-25T03:57:12;33.35;;;14.75;;
75684;SDS011;64298;46.050;38.164;2023-03-25T03:59:52;38.53;;;15.05;;
75684;SDS011;64298;46.050;38.164;2023-03-25T04:02:50;33.90;;;14.93;;
75684;SDS011;64298;46.050;38.164;2023-03-25T04:05:26;30.75;;;15.27;;
75684;SDS011;64298;46.050;38.164;2023-03-25T04:13:30;29.25;;;14.02;;
75684;SDS011;64298;46.050;38.164;2023-03-25T04:16:00;34.47;;;15.05;;
75684;SDS011;64298;46.050;38.164;2023-03-25T04:18:26;35.80;;;15.02;;
75684;SDS011;64298;46.050;38.164;2023-03-25T04:20:54;30.42;;;13.30;;
75684;SDS011;64298;46.050;38.164;2023-03-25T04:23:20;31.60;;;15.55;;
75684;SDS011;64298;46.050;38.164;2023-03-25T04:25:47;30.60;;;14.75;;
75684;SDS011;64298;46.050;38.164;2023-03-25T04:28:19;28.05;;;14.75;;
75684;SDS011;64298;46.050;38.164;2023-03-25T04:30:45;32.05;;;14.15;;
75684;SDS011;64298;46.050;38.164;2023-03-25T04:33:11;35.90;;;13.38;;
75684;SDS011;64298;46.050;38.164;2023-03-25T04:35:38;33.55;;;15.23;;
75684;SDS011;64298;46.050;38.164;2023-03-25T04:38:05;30.20;;;13.15;;
75684;SDS011;64298;46.050;38.164;2023-03-25T04:40:32;30.77;;;13.32;;
75684;SDS011;64298;46.050;38.164;2023-03-25T04:42:58;35.15;;;14.18;;
75684;SDS011;64298;46.050;38.164;2023-03-25T04:45:24;30.00;;;13.45;;
75684;SDS011;64298;46.050;38.164;2023-03-25T04:47:52;34.00;;;14.90;;
75684;SDS011;64298;46.050;38.164;2023-03-25T04:50:20;33.28;;;14.65;;
75684;SDS011;64298;46.050;38.164;2023-03-25T04:52:48;27.52;;;13.70;;
75684;SDS011;64298;46.050;38.164;2023-03-25T04:55:14;32.35;;;13.73;;
75684;SDS011;64298;46.050;38.164;2023-03-25T04:57:44;37.45;;;14.02;;
75684;SDS011;64298;46.050;38.164;2023-03-25T05:00:14;28.60;;;12.75;;
75684;SDS011;64298;46.050;38.164;2023-03-25T05:02:45;34.15;;;14.75;;
75684;SDS011;64298;46.050;38.164;2023-03-25T05:05:13;35.13;;;14.90;;
75684;SDS011;64298;46.050;38.164;2023-03-25T05:08:02;32.88;;;14.75;;
75684;SDS011;64298;46.050;38.164;2023-03-25T05:10:28;33.72;;;14.82;;
75684;SDS011;64298;46.050;38.164;2023-03-25T05:12:58;31.70;;;14.77;;
75684;SDS011;64298;46.050;38.164;2023-03-25T05:15:43;33.75;;;15.32;;
75684;SDS011;64298;46.050;38.164;2023-03-25T05:18:11;29.80;;;13.50;;
75684;SDS011;64298;46.050;38.164;2023-03-25T05:20:39;28.55;;;13.65;;
75684;SDS011;64298;46.050;38.164;2023-03-25T05:23:25;30.65;;;13.88;;
75684;SDS011;64298;46.050;38.164;2023-03-25T05:25:51;28.27;;;13.02;;
75684;SDS011;64298;46.050;38.164;2023-03-25T05:28:17;26.42;;;12.60;;
75684;SDS011;64298;46.050;38.164;2023-03-25T05:30:44;29.35;;;12.27;;
75684;SDS011;64298;46.050;38.164;2023-03-25T05:33:12;30.75;;;13.05;;
75684;SDS011;64298;46.050;38.164;2023-03-25T05:35:40;30.08;;;13.10;;
75684;SDS011;64298;46.050;38.164;2023-03-25T05:38:07;29.85;;;13.77;;
75684;SDS011;64298;46.050;38.164;2023-03-25T05:40:34;25.60;;;12.50;;
75684;SDS011;64298;46.050;38.164;2023-03-25T05:43:04;24.92;;;11.52;;
75684;SDS011;64298;46.050;38.164;2023-03-25T05:45:31;29.05;;;13.60;;
75684;SDS011;64298;46.050;38.164;2023-03-25T05:48:00;30.67;;;12.55;;
75684;SDS011;64298;46.050;38.164;2023-03-25T05:50:26;26.70;;;12.10;;
75684;SDS011;64298;46.050;38.164;2023-03-25T05:52:53;28.17;;;11.80;;
75684;SDS011;64298;46.050;38.164;2023-03-25T05:55:20;23.27;;;11.38;;
75684;SDS011;64298;46.050;38.164;2023-03-25T05:57:47;22.98;;;11.07;;
75684;SDS011;64298;46.050;38.164;2023-03-25T06:00:14;26.17;;;12.25;;
75684;SDS011;64298;46.050;38.164;2023-03-25T06:02:43;29.85;;;12.80;;
75684;SDS011;64298;46.050;38.164;2023-03-25T06:05:10;24.40;;;11.60;;
75684;SDS011;64298;46.050;38.164;2023-03-25T06:07:41;26.98;;;12.30;;
75684;SDS011;64298;46.050;38.164;2023-03-25T06:10:28;24.65;;;11.15;;
75684;SDS011;64298;46.050;38.164;2023-03-25T06:12:54;23.63;;;11.70;;
75684;SDS011;64298;46.050;38.164;2023-03-25T06:15:20;21.92;;;10.68;;
75684;SDS011;64298;46.050;38.164;2023-03-25T06:17:56;20.95;;;11.48;;
75684;SDS011;64298;46.050;38.164;2023-03-25T06:20:22;25.30;;;10.98;;
75684;SDS011;64298;46.050;38.164;2023-03-25T06:22:48;22.92;;;11.35;;
75684;SDS011;64298;46.050;38.164;2023-03-25T06:25:15;21.02;;;10.20;;
75684;SDS011;64298;46.050;38.164;2023-03-25T06:27:42;20.90;;;11.52;;
75684;SDS011;64298;46.050;38.164;2023-03-25T06:30:09;22.85;;;10.80;;
75684;SDS011;64298;46.050;38.164;2023-03-25T06:32:37;19.58;;;10.68;;
75684;SDS011;64298;46.050;38.164;2023-03-25T06:35:03;24.38;;;10.60;;
75684;SDS011;64298;46.050;38.164;2023-03-25T06:37:31;24.80;;;10.90;;
75684;SDS011;64298;46.050;38.164;2023-03-25T06:40:01;22.00;;;11.38;;
75684;SDS011;64298;46.050;38.164;2023-03-25T06:42:29;23.60;;;11.23;;
75684;SDS011;64298;46.050;38.164;2023-03-25T06:45:18;21.77;;;10.80;;
75684;SDS011;64298;46.050;38.164;2023-03-25T06:48:00;23.13;;;10.68;;
75684;SDS011;64298;46.050;38.164;2023-03-25T06:50:26;20.10;;;10.32;;
75684;SDS011;64298;46.050;38.164;2023-03-25T06:52:52;21.17;;;10.63;;
75684;SDS011;64298;46.050;38.164;2023-03-25T06:55:18;23.65;;;10.98;;
75684;SDS011;64298;46.050;38.164;2023-03-25T06:57:44;21.08;;;11.32;;
75684;SDS011;64298;46.050;38.164;2023-03-25T07:00:10;23.63;;;10.75;;
75684;SDS011;64298;46.050;38.164;2023-03-25T07:02:37;24.63;;;11.02;;
75684;SDS011;64298;46.050;38.164;2023-03-25T07:05:21;19.30;;;10.48;;
75684;SDS011;64298;46.050;38.164;2023-03-25T07:07:47;24.15;;;10.75;;
75684;SDS011;64298;46.050;38.164;2023-03-25T07:10:13;22.33;;;10.40;;
75684;SDS011;64298;46.050;38.164;2023-03-25T07:12:39;23.52;;;10.82;;
75684;SDS011;64298;46.050;38.164;2023-03-25T07:15:05;19.55;;;10.75;;
75684;SDS011;64298;46.050;38.164;2023-03-25T07:22:24;23.95;;;10.85;;
75684;SDS011;64298;46.050;38.164;2023-03-25T07:24:50;20.13;;;9.75;;
75684;SDS011;64298;46.050;38.164;2023-03-25T07:27:17;22.00;;;8.93;;
75684;SDS011;64298;46.050;38.164;2023-03-25T07:29:53;17.05;;;8.25;;
75684;SDS011;64298;46.050;38.164;2023-03-25T07:32:20;19.63;;;9.13;;
75684;SDS011;64298;46.050;38.164;2023-03-25T07:34:45;19.92;;;9.40;;
75684;SDS011;64298;46.050;38.164;2023-03-25T07:37:11;22.10;;;9.73;;
75684;SDS011;64298;46.050;38.164;2023-03-25T07:39:37;17.30;;;8.88;;
75684;SDS011;64298;46.050;38.164;2023-03-25T07:42:04;19.88;;;8.93;;
75684;SDS011;64298;46.050;38.164;2023-03-25T07:44:50;21.02;;;8.15;;
75684;SDS011;64298;46.050;38.164;2023-03-25T07:47:16;18.83;;;8.13;;
75684;SDS011;64298;46.050;38.164;2023-03-25T07:49:42;20.63;;;7.80;;
75684;SDS011;64298;46.050;38.164;2023-03-25T07:52:08;15.77;;;6.63;;
75684;SDS011;64298;46.050;38.164;2023-03-25T07:54:35;16.08;;;7.47;;
75684;SDS011;64298;46.050;38.164;2023-03-25T07:57:20;15.52;;;7.75;;
75684;SDS011;64298;46.050;38.164;2023-03-25T07:59:46;19.88;;;8.57;;
75684;SDS011;64298;46.050;38.164;2023-03-25T08:02:12;14.82;;;7.25;;
75684;SDS011;64298;46.050;38.164;2023-03-25T08:04:39;17.77;;;8.00;;
75684;SDS011;64298;46.050;38.164;2023-03-25T08:07:04;17.70;;;8.73;;
75684;SDS011;64298;46.050;38.164;2023-03-25T08:09:30;15.13;;;7.20;;
75684;SDS011;64298;46.050;38.164;2023-03-25T08:11:56;14.02;;;7.57;;
75684;SDS011;64298;46.050;38.164;2023-03-25T08:14:22;14.13;;;6.63;;
75684;SDS011;64298;46.050;38.164;2023-03-25T08:16:49;18.63;;;7.53;;
75684;SDS011;64298;46.050;38.164;2023-03-25T08:19:15;17.23;;;7.97;;
75684;SDS011;64298;46.050;38.164;2023-03-25T08:21:41;14.07;;;6.85;;
75684;SDS011;64298;46.050;38.164;2023-03-25T08:24:07;12.20;;;6.80;;
75684;SDS011;64298;46.050;38.164;2023-03-25T08:26:33;11.65;;;6.35;;
75684;SDS011;64298;46.050;38.164;2023-03-25T08:29:00;13.77;;;5.90;;
75684;SDS011;64298;46.050;38.164;2023-03-25T08:31:27;15.95;;;7.20;;
75684;SDS011;64298;46.050;38.164;2023-03-25T08:33:58;13.98;;;5.82;;
75684;SDS011;64298;46.050;38.164;2023-03-25T08:36:25;12.25;;;6.60;;
75684;SDS011;64298;46.050;38.164;2023-03-25T08:38:52;16.70;;;7.35;;
75684;SDS011;64298;46.050;38.164;2023-03-25T08:41:18;15.25;;;6.30;;
75684;SDS011;64298;46.050;38.164;2023-03-25T08:43:44;14.43;;;6.88;;
75684;SDS011;64298;46.050;38.164;2023-03-25T08:46:10;13.85;;;6.85;;
75684;SDS011;64298;46.050;38.164;2023-03-25T08:48:36;16.92;;;6.63;;
75684;SDS011;64298;46.050;38.164;2023-03-25T08:51:03;13.15;;;6.55;;
75684;SDS011;64298;46.050;38.164;2023-03-25T08:53:29;13.73;;;6.35;;
75684;SDS011;64298;46.050;38.164;2023-03-25T08:55:56;17.85;;;7.20;;
75684;SDS011;64298;46.050;38.164;2023-03-25T08:58:23;16.10;;;6.38;;
75684;SDS011;64298;46.050;38.164;2023-03-25T09:00:53;14.68;;;7.13;;
75684;SDS011;64298;46.050;38.164;2023-03-25T09:03:20;11.63;;;6.25;;
75684;SDS011;64298;46.050;38.164;2023-03-25T09:05:48;13.02;;;6.40;;
75684;SDS011;64298;46.050;38.164;2023-03-25T09:08:14;15.30;;;6.85;;
75684;SDS011;64298;46.050;38.164;2023-03-25T09:10:41;16.23;;;7.20;;
75684;SDS011;64298;46.050;38.164;2023-03-25T09:13:07;13.40;;;6.85;;
75684;SDS011;64298;46.050;38.164;2023-03-25T09:15:32;19.50;;;7.25;;
75684;SDS011;64298;46.050;38.164;2023-03-25T09:17:58;14.23;;;7.28;;
75684;SDS011;64298;46.050;38.164;2023-03-25T09:20:25;13.02;;;5.60;;
75684;SDS011;64298;46.050;38.164;2023-03-25T09:22:51;14.38;;;6.70;;
75684;SDS011;64298;46.050;38.164;2023-03-25T09:25:17;11.10;;;5.72;;
75684;SDS011;64298;46.050;38.164;2023-03-25T09:27:43;11.82;;;6.05;;
75684;SDS011;64298;46.050;38.164;2023-03-25T09:30:09;11.40;;;6.45;;
75684;SDS011;64298;46.050;38.164;2023-03-25T09:32:35;14.95;;;6.47;;
75684;SDS011;64298;46.050;38.164;2023-03-25T09:35:01;13.85;;;6.72;;
75684;SDS011;64298;46.050;38.164;2023-03-25T09:37:27;15.93;;;6.38;;
75684;SDS011;64298;46.050;38.164;2023-03-25T09:39:53;16.42;;;7.30;;
75684;SDS011;64298;46.050;38.164;2023-03-25T09:50:45;14.50;;;6.03;;
75684;SDS011;64298;46.050;38.164;2023-03-25T09:53:33;11.75;;;5.50;;
75684;SDS011;64298;46.050;38.164;2023-03-25T09:56:03;12.07;;;6.10;;
75684;SDS011;64298;46.050;38.164;2023-03-25T09:58:37;11.02;;;5.18;;
75684;SDS011;64298;46.050;38.164;2023-03-25T10:06:20;12.98;;;5.13;;
75684;SDS011;64298;46.050;38.164;2023-03-25T10:09:02;13.52;;;5.50;;
75684;SDS011;64298;46.050;38.164;2023-03-25T10:11:40;12.23;;;5.38;;
75684;SDS011;64298;46.050;38.164;2023-03-25T10:14:44;12.07;;;5.13;;
75684;SDS011;64298;46.050;38.164;2023-03-25T10:17:27;11.00;;;5.10;;
75684;SDS011;64298;46.050;38.164;2023-03-25T10:20:11;12.20;;;5.85;;
75684;SDS011;64298;46.050;38.164;2023-03-25T10:25:58;13.73;;;6.10;;
75684;SDS011;64298;46.050;38.164;2023-03-25T10:28:34;18.05;;;5.82;;
75684;SDS011;64298;46.050;38.164;2023-03-25T10:31:09;10.23;;;5.13;;
75684;SDS011;64298;46.050;38.164;2023-03-25T10:33:43;17.40;;;5.72;;
75684;SDS011;64298;46.050;38.164;2023-03-25T10:36:17;13.57;;;6.10;;
75684;SDS011;64298;46.050;38.164;2023-03-25T10:38:56;16.25;;;5.43;;
75684;SDS011;64298;46.050;38.164;2023-03-25T10:41:30;12.60;;;5.55;;
75684;SDS011;64298;46.050;38.164;2023-03-25T10:44:09;12.50;;;6.38;;
75684;SDS011;64298;46.050;38.164;2023-03-25T10:49:16;17.17;;;6.07;;
75684;SDS011;64298;46.050;38.164;2023-03-25T10:51:45;17.52;;;6.43;;
75684;SDS011;64298;46.050;38.164;2023-03-25T10:54:13;10.55;;;5.20;;
75684;SDS011;64298;46.050;38.164;2023-03-25T10:56:46;13.10;;;5.45;;
75684;SDS011;64298;46.050;38.164;2023-03-25T10:59:22;9.68;;;5.05;;
75684;SDS011;64298;46.050;38.164;2023-03-25T11:01:54;13.60;;;5.80;;
75684;SDS011;64298;46.050;38.164;2023-03-25T11:04:23;12.43;;;5.97;;
75684;SDS011;64298;46.050;38.164;2023-03-25T11:06:56;11.63;;;5.80;;
75684;SDS011;64298;46.050;38.164;2023-03-25T11:09:25;14.88;;;5.90;;
75684;SDS011;64298;46.050;38.164;2023-03-25T11:11:55;10.95;;;6.05;;
75684;SDS011;64298;46.050;38.164;2023-03-25T11:14:26;11.57;;;5.80;;
75684;SDS011;64298;46.050;38.164;2023-03-25T11:16:54;15.85;;;5.57;;
75684;SDS011;64298;46.050;38.164;2023-03-25T11:19:39;14.48;;;6.20;;
75684;SDS011;64298;46.050;38.164;2023-03-25T11:25:05;12.05;;;5.45;;
75684;SDS011;64298;46.050;38.164;2023-03-25T11:28:00;11.75;;;5.85;;
75684;SDS011;64298;46.050;38.164;2023-03-25T11:30:26;13.80;;;6.00;;
75684;SDS011;64298;46.050;38.164;2023-03-25T11:33:02;9.95;;;4.82;;
75684;SDS011;64298;46.050;38.164;2023-03-25T11:35:40;16.88;;;5.65;;
75684;SDS011;64298;46.050;38.164;2023-03-25T11:38:15;8.88;;;4.88;;
75684;SDS011;64298;46.050;38.164;2023-03-25T11:41:03;12.00;;;5.93;;
75684;SDS011;64298;46.050;38.164;2023-03-25T11:43:34;11.23;;;5.10;;
75684;SDS011;64298;46.050;38.164;2023-03-25T11:46:19;11.70;;;5.88;;
75684;SDS011;64298;46.050;38.164;2023-03-25T11:48:46;12.85;;;5.53;;
75684;SDS011;64298;46.050;38.164;2023-03-25T11:51:18;28.48;;;5.82;;
75684;SDS011;64298;46.050;38.164;2023-03-25T11:53:46;10.88;;;5.63;;
75684;SDS011;64298;46.050;38.164;2023-03-25T11:56:26;13.70;;;5.82;;
75684;SDS011;64298;46.050;38.164;2023-03-25T11:58:57;11.10;;;5.22;;
75684;SDS011;64298;46.050;38.164;2023-03-25T12:04:05;14.20;;;5.55;;
75684;SDS011;64298;46.050;38.164;2023-03-25T12:06:31;14.48;;;6.72;;
75684;SDS011;64298;46.050;38.164;2023-03-25T12:08:59;10.63;;;4.85;;
75684;SDS011;64298;46.050;38.164;2023-03-25T12:11:29;11.13;;;5.30;;
75684;SDS011;64298;46.050;38.164;2023-03-25T12:19:47;9.52;;;4.78;;
75684;SDS011;64298;46.050;38.164;2023-03-25T12:28:24;10.68;;;5.10;;
75684;SDS011;64298;46.050;38.164;2023-03-25T12:34:07;10.43;;;5.32;;
75684;SDS011;64298;46.050;38.164;2023-03-25T12:39:24;12.63;;;5.63;;
75684;SDS011;64298;46.050;38.164;2023-03-25T12:47:27;11.63;;;5.68;;
75684;SDS011;64298;46.050;38.164;2023-03-25T12:58:42;13.52;;;7.10;;
75684;SDS011;64298;46.050;38.164;2023-03-25T13:01:22;15.77;;;6.80;;
75684;SDS011;64298;46.050;38.164;2023-03-25T13:09:28;12.88;;;7.47;;
75684;SDS011;64298;46.050;38.164;2023-03-25T13:12:08;17.92;;;7.80;;
75684;SDS011;64298;46.050;38.164;2023-03-25T13:14:39;13.80;;;7.25;;
75684;SDS011;64298;46.050;38.164;2023-03-25T13:17:29;19.13;;;8.60;;
75684;SDS011;64298;46.050;38.164;2023-03-25T13:19:59;15.32;;;7.47;;
75684;SDS011;64298;46.050;38.164;2023-03-25T13:22:31;16.35;;;8.50;;
75684;SDS011;64298;46.050;38.164;2023-03-25T13:25:03;16.77;;;8.00;;
75684;SDS011;64298;46.050;38.164;2023-03-25T13:27:38;16.77;;;7.80;;
75684;SDS011;64298;46.050;38.164;2023-03-25T13:30:16;16.27;;;8.20;;
75684;SDS011;64298;46.050;38.164;2023-03-25T13:32:52;13.50;;;7.20;;
75684;SDS011;64298;46.050;38.164;2023-03-25T13:35:27;15.43;;;8.20;;
75684;SDS011;64298;46.050;38.164;2023-03-25T13:37:56;18.25;;;8.32;;
75684;SDS011;64298;46.050;38.164;2023-03-25T13:40:29;14.23;;;7.97;;
75684;SDS011;64298;46.050;38.164;2023-03-25T13:43:06;20.33;;;9.25;;
75684;SDS011;64298;46.050;38.164;2023-03-25T13:45:53;15.73;;;7.90;;
75684;SDS011;64298;46.050;38.164;2023-03-25T13:51:13;17.52;;;7.45;;
75684;SDS011;64298;46.050;38.164;2023-03-25T13:53:41;18.05;;;7.47;;
75684;SDS011;64298;46.050;38.164;2023-03-25T13:56:32;15.20;;;6.78;;
75684;SDS011;64298;46.050;38.164;2023-03-25T13:59:16;14.38;;;7.45;;
75684;SDS011;64298;46.050;38.164;2023-03-25T14:01:57;16.63;;;7.28;;
75684;SDS011;64298;46.050;38.164;2023-03-25T14:10:00;14.75;;;7.65;;
75684;SDS011;64298;46.050;38.164;2023-03-25T14:15:11;15.93;;;7.10;;
75684;SDS011;64298;46.050;38.164;2023-03-25T14:17:45;12.63;;;6.35;;
75684;SDS011;64298;46.050;38.164;2023-03-25T14:20:16;17.35;;;6.50;;
75684;SDS011;64298;46.050;38.164;2023-03-25T14:23:05;16.08;;;6.55;;
75684;SDS011;64298;46.050;38.164;2023-03-25T14:25:37;16.60;;;7.45;;
75684;SDS011;64298;46.050;38.164;2023-03-25T14:28:06;14.95;;;7.97;;
75684;SDS011;64298;46.050;38.164;2023-03-25T14:30:36;17.98;;;7.93;;
75684;SDS011;64298;46.050;38.164;2023-03-25T14:33:02;13.35;;;7.35;;
75684;SDS011;64298;46.050;38.164;2023-03-25T14:37:56;13.07;;;6.78;;
75684;SDS011;64298;46.050;38.164;2023-03-25T14:40:47;16.45;;;8.02;;
75684;SDS011;64298;46.050;38.164;2023-03-25T14:54:03;18.38;;;7.35;;
75684;SDS011;64298;46.050;38.164;2023-03-25T14:56:53;16.58;;;7.18;;
75684;SDS011;64298;46.050;38.164;2023-03-25T14:59:42;16.33;;;8.00;;
75684;SDS011;64298;46.050;38.164;2023-03-25T15:02:19;26.25;;;7.65;;
75684;SDS011;64298;46.050;38.164;2023-03-25T15:05:31;21.45;;;7.65;;
75684;SDS011;64298;46.050;38.164;2023-03-25T15:07:48;20.95;;;8.00;;
75684;SDS011;64298;46.050;38.164;2023-03-25T15:10:25;18.08;;;7.18;;
75684;SDS011;64298;46.050;38.164;2023-03-25T15:13:20;15.38;;;7.88;;
75684;SDS011;64298;46.050;38.164;2023-03-25T15:15:53;18.50;;;8.75;;
75684;SDS011;64298;46.050;38.164;2023-03-25T15:34:47;18.15;;;6.53;;
75684;SDS011;64298;46.050;38.164;2023-03-25T15:40:30;15.93;;;7.18;;
75684;SDS011;64298;46.050;38.164;2023-03-25T15:43:12;16.98;;;7.43;;
75684;SDS011;64298;46.050;38.164;2023-03-25T15:54:28;16.65;;;8.30;;
75684;SDS011;64298;46.050;38.164;2023-03-25T15:57:21;18.38;;;7.03;;
75684;SDS011;64298;46.050;38.164;2023-03-25T16:00:12;23.08;;;8.88;;
75684;SDS011;64298;46.050;38.164;2023-03-25T16:02:51;25.60;;;8.57;;
75684;SDS011;64298;46.050;38.164;2023-03-25T16:05:36;20.33;;;8.43;;
75684;SDS011;64298;46.050;38.164;2023-03-25T16:08:10;19.17;;;7.57;;
75684;SDS011;64298;46.050;38.164;2023-03-25T16:10:42;18.73;;;8.30;;
75684;SDS011;64298;46.050;38.164;2023-03-25T16:13:14;17.88;;;7.78;;
75684;SDS011;64298;46.050;38.164;2023-03-25T16:16:06;18.98;;;8.35;;
75684;SDS011;64298;46.050;38.164;2023-03-25T16:18:33;22.75;;;7.80;;
75684;SDS011;64298;46.050;38.164;2023-03-25T16:21:01;21.15;;;8.95;;
75684;SDS011;64298;46.050;38.164;2023-03-25T16:23:28;16.90;;;7.68;;
75684;SDS011;64298;46.050;38.164;2023-03-25T16:25:55;16.90;;;7.85;;
75684;SDS011;64298;46.050;38.164;2023-03-25T16:28:25;18.80;;;7.90;;
75684;SDS011;64298;46.050;38.164;2023-03-25T16:30:53;18.40;;;7.57;;
75684;SDS011;64298;46.050;38.164;2023-03-25T16:33:30;18.75;;;7.18;;
75684;SDS011;64298;46.050;38.164;2023-03-25T16:36:13;16.10;;;7.55;;
75684;SDS011;64298;46.050;38.164;2023-03-25T16:38:41;20.50;;;9.45;;
75684;SDS011;64298;46.050;38.164;2023-03-25T16:41:11;16.98;;;8.05;;
75684;SDS011;64298;46.050;38.164;2023-03-25T16:43:39;15.10;;;7.32;;
75684;SDS011;64298;46.050;38.164;2023-03-25T16:46:06;16.50;;;8.05;;
75684;SDS011;64298;46.050;38.164;2023-03-25T16:48:34;16.40;;;7.40;;
75684;SDS011;64298;46.050;38.164;2023-03-25T16:53:40;18.20;;;8.57;;
75684;SDS011;64298;46.050;38.164;2023-03-25T16:58:36;13.70;;;6.93;;
75684;SDS011;64298;46.050;38.164;2023-03-25T17:01:18;17.27;;;8.52;;
75684;SDS011;64298;46.050;38.164;2023-03-25T17:03:46;22.90;;;8.40;;
75684;SDS011;64298;46.050;38.164;2023-03-25T17:08:54;29.50;;;9.50;;
75684;SDS011;64298;46.050;38.164;2023-03-25T17:11:25;16.48;;;7.13;;
75684;SDS011;64298;46.050;38.164;2023-03-25T17:13:53;21.15;;;9.35;;
75684;SDS011;64298;46.050;38.164;2023-03-25T17:16:33;18.48;;;7.13;;
75684;SDS011;64298;46.050;38.164;2023-03-25T17:19:01;17.58;;;7.35;;
75684;SDS011;64298;46.050;38.164;2023-03-25T17:21:29;19.35;;;7.47;;
75684;SDS011;64298;46.050;38.164;2023-03-25T17:24:01;19.13;;;8.60;;
75684;SDS011;64298;46.050;38.164;2023-03-25T17:27:03;19.15;;;8.27;;
75684;SDS011;64298;46.050;38.164;2023-03-25T17:29:31;18.67;;;8.77;;
75684;SDS011;64298;46.050;38.164;2023-03-25T17:31:58;16.95;;;8.02;;
75684;SDS011;64298;46.050;38.164;2023-03-25T17:34:42;22.05;;;9.30;;
75684;SDS011;64298;46.050;38.164;2023-03-25T17:37:10;15.48;;;6.82;;
75684;SDS011;64298;46.050;38.164;2023-03-25T17:39:38;19.60;;;8.75;;
75684;SDS011;64298;46.050;38.164;2023-03-25T17:42:07;21.67;;;8.52;;
75684;SDS011;64298;46.050;38.164;2023-03-25T17:44:43;24.35;;;8.68;;